sensor_id;sensor_type;location;lat;lon;timestamp;pressure;altitude;pressure_sealevel;temperature;humidity
63204;BME280;49297;43.210;27.914;2023-02-14T00:01:52;102727.03;;;0.63;67.31
63204;BME280;49297;43.210;27.914;2023-02-14T00:04:19;102726.09;;;0.67;67.18
63204;BME280;49297;43.210;27.914;2023-02-14T00:06:45;102732.09;;;0.71;67.43
63204;BME280;49297;43.210;27.914;2023-02-14T00:09:15;102724.25;;;0.74;68.30
63204;BME280;49297;43.210;27.914;2023-02-14T00:11:42;102718.19;;;0.73;68.13
63204;BME280;49297;43.210;27.914;2023-02-14T00:14:08;102715.63;;;0.70;68.26
63204;BME280;49297;43.210;27.914;2023-02-14T00:16:53;102704.41;;;0.65;68.73
63204;BME280;49297;43.210;27.914;2023-02-14T00:19:19;102707.94;;;0.61;68.73
63204;BME280;49297;43.210;27.914;2023-02-14T00:21:46;102698.38;;;0.60;68.96
63204;BME280;49297;43.210;27.914;2023-02-14T00:24:18;102701.84;;;0.61;69.11
63204;BME280;49297;43.210;27.914;2023-02-14T00:26:45;102702.81;;;0.55;69.61
63204;BME280;49297;43.210;27.914;2023-02-14T00:29:14;102696.75;;;0.54;68.80
63204;BME280;49297;43.210;27.914;2023-02-14T00:31:41;102694.16;;;0.53;69.28
63204;BME280;49297;43.210;27.914;2023-02-14T00:34:08;102689.03;;;0.48;69.40
63204;BME280;49297;43.210;27.914;2023-02-14T00:36:34;102696.91;;;0.45;69.91
63204;BME280;49297;43.210;27.914;2023-02-14T00:39:05;102688.25;;;0.43;69.77
63204;BME280;49297;43.210;27.914;2023-02-14T00:41:31;102686.53;;;0.41;69.62
63204;BME280;49297;43.210;27.914;2023-02-14T00:43:57;102680.44;;;0.43;69.82
63204;BME280;49297;43.210;27.914;2023-02-14T00:46:23;102673.53;;;0.39;70.58
63204;BME280;49297;43.210;27.914;2023-02-14T00:48:50;102666.59;;;0.38;70.69
63204;BME280;49297;43.210;27.914;2023-02-14T00:51:17;102660.53;;;0.37;70.72
63204;BME280;49297;43.210;27.914;2023-02-14T00:53:44;102652.66;;;0.41;70.99
63204;BME280;49297;43.210;27.914;2023-02-14T00:56:11;102646.53;;;0.43;70.87
63204;BME280;49297;43.210;27.914;2023-02-14T00:58:37;102638.78;;;0.38;71.03
63204;BME280;49297;43.210;27.914;2023-02-14T01:01:04;102647.41;;;0.42;71.35
63204;BME280;49297;43.210;27.914;2023-02-14T01:03:31;102642.25;;;0.39;71.72
63204;BME280;49297;43.210;27.914;2023-02-14T01:05:58;102637.91;;;0.40;71.71
63204;BME280;49297;43.210;27.914;2023-02-14T01:08:24;102632.59;;;0.44;71.66
63204;BME280;49297;43.210;27.914;2023-02-14T01:10:50;102630.84;;;0.46;71.34
63204;BME280;49297;43.210;27.914;2023-02-14T01:13:16;102626.41;;;0.51;71.54
63204;BME280;49297;43.210;27.914;2023-02-14T01:15:45;102620.38;;;0.49;71.57
63204;BME280;49297;43.210;27.914;2023-02-14T01:18:12;102618.59;;;0.51;71.65
63204;BME280;49297;43.210;27.914;2023-02-14T01:20:38;102610.69;;;0.57;71.50
63204;BME280;49297;43.210;27.914;2023-02-14T01:23:04;102612.38;;;0.59;71.17
63204;BME280;49297;43.210;27.914;2023-02-14T01:25:30;102613.19;;;0.62;71.21
63204;BME280;49297;43.210;27.914;2023-02-14T01:27:56;102613.16;;;0.64;71.37
63204;BME280;49297;43.210;27.914;2023-02-14T01:30:22;102612.25;;;0.66;71.34
63204;BME280;49297;43.210;27.914;2023-02-14T01:32:48;102605.31;;;0.65;71.24
63204;BME280;49297;43.210;27.914;2023-02-14T01:35:17;102603.50;;;0.69;71.38
63204;BME280;49297;43.210;27.914;2023-02-14T01:37:43;102600.06;;;0.68;71.17
63204;BME280;49297;43.210;27.914;2023-02-14T01:40:10;102597.44;;;0.68;71.58
63204;BME280;49297;43.210;27.914;2023-02-14T01:42:36;102597.44;;;0.68;71.53
63204;BME280;49297;43.210;27.914;2023-02-14T01:47:37;102605.97;;;0.76;71.04
63204;BME280;49297;43.210;27.914;2023-02-14T01:50:12;102599.84;;;0.81;71.21
63204;BME280;49297;43.210;27.914;2023-02-14T01:52:58;102596.25;;;0.85;71.19
63204;BME280;49297;43.210;27.914;2023-02-14T01:55:30;102601.47;;;0.86;70.72
63204;BME280;49297;43.210;27.914;2023-02-14T01:58:03;102599.69;;;0.88;70.67
63204;BME280;49297;43.210;27.914;2023-02-14T02:00:31;102597.88;;;0.92;70.66
63204;BME280;49297;43.210;27.914;2023-02-14T02:03:16;102593.44;;;0.95;70.85
63204;BME280;49297;43.210;27.914;2023-02-14T02:05:47;102586.56;;;0.93;70.71
63204;BME280;49297;43.210;27.914;2023-02-14T02:08:15;102582.25;;;0.89;70.80
63204;BME280;49297;43.210;27.914;2023-02-14T02:10:41;102569.19;;;0.90;70.94
63204;BME280;49297;43.210;27.914;2023-02-14T02:13:15;102559.56;;;0.94;70.94
63204;BME280;49297;43.210;27.914;2023-02-14T02:19:08;102546.56;;;0.91;70.39
63204;BME280;49297;43.210;27.914;2023-02-14T02:25:07;102547.53;;;0.87;70.55
63204;BME280;49297;43.210;27.914;2023-02-14T02:33:44;102539.97;;;0.73;70.59
63204;BME280;49297;43.210;27.914;2023-02-14T02:41:53;102527.09;;;0.65;70.92
63204;BME280;49297;43.210;27.914;2023-02-14T02:47:22;102527.16;;;0.61;71.28
63204;BME280;49297;43.210;27.914;2023-02-14T02:50:17;102522.03;;;0.57;71.58
63204;BME280;49297;43.210;27.914;2023-02-14T02:55:56;102535.00;;;0.61;71.86
63204;BME280;49297;43.210;27.914;2023-02-14T03:01:15;102540.09;;;0.67;71.86
63204;BME280;49297;43.210;27.914;2023-02-14T03:03:45;102522.69;;;0.69;71.72
63204;BME280;49297;43.210;27.914;2023-02-14T03:06:31;102511.44;;;0.65;71.66
63204;BME280;49297;43.210;27.914;2023-02-14T03:09:08;102507.94;;;0.68;71.82
63204;BME280;49297;43.210;27.914;2023-02-14T03:11:35;102500.19;;;0.65;72.06
63204;BME280;49297;43.210;27.914;2023-02-14T03:14:22;102495.78;;;0.67;71.68
63204;BME280;49297;43.210;27.914;2023-02-14T03:17:03;102496.59;;;0.69;72.09
63204;BME280;49297;43.210;27.914;2023-02-14T03:19:40;102497.47;;;0.69;71.67
63204;BME280;49297;43.210;27.914;2023-02-14T03:24:57;102485.31;;;0.70;72.03
63204;BME280;49297;43.210;27.914;2023-02-14T03:27:41;102490.53;;;0.68;71.75
63204;BME280;49297;43.210;27.914;2023-02-14T03:30:27;102483.63;;;0.66;71.48
63204;BME280;49297;43.210;27.914;2023-02-14T03:33:15;102469.66;;;0.70;71.72
63204;BME280;49297;43.210;27.914;2023-02-14T03:36:14;102475.75;;;0.69;71.61
63204;BME280;49297;43.210;27.914;2023-02-14T03:38:49;102474.94;;;0.67;71.55
63204;BME280;49297;43.210;27.914;2023-02-14T03:41:20;102463.63;;;0.68;71.74
63204;BME280;49297;43.210;27.914;2023-02-14T03:43:53;102451.53;;;0.62;71.58
63204;BME280;49297;43.210;27.914;2023-02-14T03:48:54;102451.56;;;0.61;71.93
63204;BME280;49297;43.210;27.914;2023-02-14T03:51:22;102447.25;;;0.60;72.02
63204;BME280;49297;43.210;27.914;2023-02-14T03:53:51;102444.59;;;0.63;72.06
63204;BME280;49297;43.210;27.914;2023-02-14T03:56:33;102441.84;;;0.69;71.54
63204;BME280;49297;43.210;27.914;2023-02-14T03:59:21;102442.75;;;0.68;71.91
63204;BME280;49297;43.210;27.914;2023-02-14T04:04:32;102441.03;;;0.67;71.49
63204;BME280;49297;43.210;27.914;2023-02-14T04:07:17;102435.03;;;0.63;71.87
63204;BME280;49297;43.210;27.914;2023-02-14T04:09:43;102432.50;;;0.59;71.56
63204;BME280;49297;43.210;27.914;2023-02-14T04:12:09;102431.69;;;0.55;72.22
63204;BME280;49297;43.210;27.914;2023-02-14T04:14:36;102446.44;;;0.57;72.02
63204;BME280;49297;43.210;27.914;2023-02-14T04:17:03;102450.84;;;0.55;72.01
63204;BME280;49297;43.210;27.914;2023-02-14T04:19:47;102460.38;;;0.55;71.96
63204;BME280;49297;43.210;27.914;2023-02-14T04:22:13;102461.34;;;0.51;72.16
63204;BME280;49297;43.210;27.914;2023-02-14T04:24:39;102465.69;;;0.52;72.06
63204;BME280;49297;43.210;27.914;2023-02-14T04:27:05;102464.78;;;0.51;71.83
63204;BME280;49297;43.210;27.914;2023-02-14T04:29:40;102469.19;;;0.49;71.82
63204;BME280;49297;43.210;27.914;2023-02-14T04:32:08;102473.38;;;0.56;71.88
63204;BME280;49297;43.210;27.914;2023-02-14T04:34:35;102476.84;;;0.57;71.65
63204;BME280;49297;43.210;27.914;2023-02-14T04:37:01;102474.19;;;0.60;71.47
63204;BME280;49297;43.210;27.914;2023-02-14T04:39:27;102466.34;;;0.62;71.64
63204;BME280;49297;43.210;27.914;2023-02-14T04:41:53;102477.56;;;0.65;71.09
63204;BME280;49297;43.210;27.914;2023-02-14T04:44:19;102473.97;;;0.71;71.44
63204;BME280;49297;43.210;27.914;2023-02-14T04:46:45;102475.72;;;0.70;71.16
63204;BME280;49297;43.210;27.914;2023-02-14T04:49:11;102466.28;;;0.65;70.55
63204;BME280;49297;43.210;27.914;2023-02-14T04:51:36;102469.75;;;0.65;70.75
63204;BME280;49297;43.210;27.914;2023-02-14T04:54:02;102472.38;;;0.64;70.86
63204;BME280;49297;43.210;27.914;2023-02-14T04:56:28;102475.00;;;0.62;70.88
63204;BME280;49297;43.210;27.914;2023-02-14T04:58:55;102471.63;;;0.57;70.71
63204;BME280;49297;43.210;27.914;2023-02-14T05:01:21;102475.16;;;0.56;70.84
63204;BME280;49297;43.210;27.914;2023-02-14T05:03:47;102469.28;;;0.45;70.86
63204;BME280;49297;43.210;27.914;2023-02-14T05:06:13;102464.00;;;0.48;71.03
63204;BME280;49297;43.210;27.914;2023-02-14T05:08:39;102471.78;;;0.49;70.90
63204;BME280;49297;43.210;27.914;2023-02-14T05:11:05;102470.00;;;0.51;71.00
63204;BME280;49297;43.210;27.914;2023-02-14T05:13:31;102472.63;;;0.51;70.69
63204;BME280;49297;43.210;27.914;2023-02-14T05:15:57;102471.81;;;0.48;71.12
63204;BME280;49297;43.210;27.914;2023-02-14T05:18:23;102477.94;;;0.47;70.84
63204;BME280;49297;43.210;27.914;2023-02-14T05:20:53;102485.81;;;0.44;70.68
63204;BME280;49297;43.210;27.914;2023-02-14T05:23:20;102483.34;;;0.36;70.92
63204;BME280;49297;43.210;27.914;2023-02-14T05:25:47;102488.66;;;0.30;70.95
63204;BME280;49297;43.210;27.914;2023-02-14T05:28:13;102484.38;;;0.27;71.02
63204;BME280;49297;43.210;27.914;2023-02-14T05:30:39;102492.22;;;0.26;71.14
63204;BME280;49297;43.210;27.914;2023-02-14T05:33:05;102494.84;;;0.24;70.81
63204;BME280;49297;43.210;27.914;2023-02-14T05:35:31;102490.50;;;0.23;70.90
63204;BME280;49297;43.210;27.914;2023-02-14T05:37:57;102492.22;;;0.26;71.23
63204;BME280;49297;43.210;27.914;2023-02-14T05:40:24;102493.00;;;0.31;70.83
63204;BME280;49297;43.210;27.914;2023-02-14T05:42:54;102493.88;;;0.30;70.91
63204;BME280;49297;43.210;27.914;2023-02-14T05:45:22;102497.31;;;0.30;71.12
63204;BME280;49297;43.210;27.914;2023-02-14T05:47:48;102489.59;;;0.27;70.99
63204;BME280;49297;43.210;27.914;2023-02-14T05:50:15;102489.59;;;0.27;71.17
63204;BME280;49297;43.210;27.914;2023-02-14T05:52:41;102492.09;;;0.32;71.02
63204;BME280;49297;43.210;27.914;2023-02-14T05:55:07;102488.53;;;0.37;71.16
63204;BME280;49297;43.210;27.914;2023-02-14T05:57:33;102492.81;;;0.40;70.94
63204;BME280;49297;43.210;27.914;2023-02-14T05:59:59;102484.13;;;0.41;70.89
63204;BME280;49297;43.210;27.914;2023-02-14T06:02:25;102475.31;;;0.47;71.21
63204;BME280;49297;43.210;27.914;2023-02-14T06:04:51;102477.78;;;0.54;70.80
63204;BME280;49297;43.210;27.914;2023-02-14T06:07:17;102471.56;;;0.60;70.80
63204;BME280;49297;43.210;27.914;2023-02-14T06:09:44;102476.75;;;0.63;70.68
63204;BME280;49297;43.210;27.914;2023-02-14T06:12:09;102481.91;;;0.66;70.81
63204;BME280;49297;43.210;27.914;2023-02-14T06:14:35;102486.09;;;0.73;70.58
63204;BME280;49297;43.210;27.914;2023-02-14T06:17:01;102470.34;;;0.78;70.21
63204;BME280;49297;43.210;27.914;2023-02-14T06:19:30;102462.41;;;0.84;69.77
63204;BME280;49297;43.210;27.914;2023-02-14T06:21:55;102455.38;;;0.88;69.98
63204;BME280;49297;43.210;27.914;2023-02-14T06:24:21;102454.41;;;0.92;69.98
63204;BME280;49297;43.210;27.914;2023-02-14T06:26:47;102462.22;;;0.93;69.93
63204;BME280;49297;43.210;27.914;2023-02-14T06:29:16;102470.00;;;0.95;69.69
63204;BME280;49297;43.210;27.914;2023-02-14T06:31:42;102462.06;;;1.00;69.68
63204;BME280;49297;43.210;27.914;2023-02-14T06:34:08;102462.00;;;1.03;69.68
63204;BME280;49297;43.210;27.914;2023-02-14T06:36:34;102471.56;;;1.04;69.84
63204;BME280;49297;43.210;27.914;2023-02-14T06:38:59;102451.47;;;1.07;69.46
63204;BME280;49297;43.210;27.914;2023-02-14T06:41:26;102455.69;;;1.13;69.60
63204;BME280;49297;43.210;27.914;2023-02-14T06:43:51;102455.66;;;1.14;69.34
63204;BME280;49297;43.210;27.914;2023-02-14T06:46:18;102456.34;;;1.23;69.85
63204;BME280;49297;43.210;27.914;2023-02-14T06:48:44;102452.81;;;1.25;69.52
63204;BME280;49297;43.210;27.914;2023-02-14T06:51:10;102451.81;;;1.31;69.44
63204;BME280;49297;43.210;27.914;2023-02-14T06:53:36;102441.22;;;1.37;69.23
63204;BME280;49297;43.210;27.914;2023-02-14T06:56:03;102436.78;;;1.41;69.51
63204;BME280;49297;43.210;27.914;2023-02-14T06:58:29;102436.63;;;1.48;68.88
63204;BME280;49297;43.210;27.914;2023-02-14T07:00:56;102449.53;;;1.53;68.74
63204;BME280;49297;43.210;27.914;2023-02-14T07:03:22;102458.16;;;1.57;69.06
63204;BME280;49297;43.210;27.914;2023-02-14T07:05:48;102462.31;;;1.65;69.16
63204;BME280;49297;43.210;27.914;2023-02-14T07:08:14;102468.19;;;1.74;68.33
63204;BME280;49297;43.210;27.914;2023-02-14T07:10:40;102459.34;;;1.79;68.99
63204;BME280;49297;43.210;27.914;2023-02-14T07:13:07;102460.00;;;1.89;68.73
63204;BME280;49297;43.210;27.914;2023-02-14T07:15:33;102462.34;;;2.00;68.96
63204;BME280;49297;43.210;27.914;2023-02-14T07:17:59;102462.91;;;2.11;68.56
63204;BME280;49297;43.210;27.914;2023-02-14T07:20:25;102456.50;;;2.23;68.93
63204;BME280;49297;43.210;27.914;2023-02-14T07:22:51;102450.25;;;2.28;68.17
63204;BME280;49297;43.210;27.914;2023-02-14T07:25:21;102439.69;;;2.32;68.18
63204;BME280;49297;43.210;27.914;2023-02-14T07:27:47;102449.19;;;2.36;68.76
63204;BME280;49297;43.210;27.914;2023-02-14T07:30:14;102453.53;;;2.35;68.27
63204;BME280;49297;43.210;27.914;2023-02-14T07:32:40;102443.91;;;2.37;68.52
63204;BME280;49297;43.210;27.914;2023-02-14T07:35:10;102441.06;;;2.45;68.08
63204;BME280;49297;43.210;27.914;2023-02-14T07:37:36;102446.03;;;2.54;68.72
63204;BME280;49297;43.210;27.914;2023-02-14T07:40:03;102449.19;;;2.65;67.93
63204;BME280;49297;43.210;27.914;2023-02-14T07:42:30;102455.03;;;2.75;68.23
63204;BME280;49297;43.210;27.914;2023-02-14T07:44:55;102447.81;;;2.83;67.53
63204;BME280;49297;43.210;27.914;2023-02-14T07:47:21;102438.72;;;2.95;67.42
63204;BME280;49297;43.210;27.914;2023-02-14T07:49:47;102441.06;;;3.04;67.23
63204;BME280;49297;43.210;27.914;2023-02-14T07:52:13;102446.84;;;3.16;67.22
63204;BME280;49297;43.210;27.914;2023-02-14T07:54:38;102444.75;;;3.27;67.40
63204;BME280;49297;43.210;27.914;2023-02-14T07:57:04;102442.66;;;3.37;67.01
63204;BME280;49297;43.210;27.914;2023-02-14T07:59:30;102433.66;;;3.46;66.69
63204;BME280;49297;43.210;27.914;2023-02-14T08:01:56;102444.66;;;3.57;66.49
63204;BME280;49297;43.210;27.914;2023-02-14T08:04:22;102432.97;;;3.67;66.24
63204;BME280;49297;43.210;27.914;2023-02-14T08:06:52;102435.31;;;3.76;65.07
63204;BME280;49297;43.210;27.914;2023-02-14T08:09:18;102431.69;;;3.79;65.02
63204;BME280;49297;43.210;27.914;2023-02-14T08:11:51;102425.34;;;3.86;64.89
63204;BME280;49297;43.210;27.914;2023-02-14T08:14:35;102430.44;;;3.91;65.17
63204;BME280;49297;43.210;27.914;2023-02-14T08:17:01;102428.41;;;3.99;65.09
63204;BME280;49297;43.210;27.914;2023-02-14T08:19:28;102422.78;;;4.10;65.19
63204;BME280;49297;43.210;27.914;2023-02-14T08:21:53;102415.47;;;4.19;64.46
63204;BME280;49297;43.210;27.914;2023-02-14T08:24:19;102400.97;;;4.33;63.25
63204;BME280;49297;43.210;27.914;2023-02-14T08:26:47;102405.81;;;4.44;61.36
63204;BME280;49297;43.210;27.914;2023-02-14T08:29:12;102403.63;;;4.56;60.17
63204;BME280;49297;43.210;27.914;2023-02-14T08:31:38;102400.53;;;4.69;60.28
63204;BME280;49297;43.210;27.914;2023-02-14T08:34:05;102396.56;;;4.81;59.96
63204;BME280;49297;43.210;27.914;2023-02-14T08:36:31;102397.09;;;4.90;58.57
63204;BME280;49297;43.210;27.914;2023-02-14T08:38:57;102393.25;;;4.99;58.22
63204;BME280;49297;43.210;27.914;2023-02-14T08:41:23;102393.78;;;5.07;57.99
63204;BME280;49297;43.210;27.914;2023-02-14T08:43:49;102392.56;;;5.16;58.67
63204;BME280;49297;43.210;27.914;2023-02-14T08:46:15;102401.78;;;5.26;56.96
63204;BME280;49297;43.210;27.914;2023-02-14T08:48:44;102396.31;;;5.31;56.76
63204;BME280;49297;43.210;27.914;2023-02-14T08:51:12;102390.56;;;5.43;56.63
63204;BME280;49297;43.210;27.914;2023-02-14T08:53:39;102383.31;;;5.50;56.12
63204;BME280;49297;43.210;27.914;2023-02-14T08:56:08;102377.06;;;5.52;55.98
63204;BME280;49297;43.210;27.914;2023-02-14T08:58:34;102377.66;;;5.59;55.84
63204;BME280;49297;43.210;27.914;2023-02-14T09:01:06;102372.16;;;5.65;55.66
63204;BME280;49297;43.210;27.914;2023-02-14T09:03:32;102359.28;;;5.80;55.40
63204;BME280;49297;43.210;27.914;2023-02-14T09:06:05;102359.72;;;5.89;55.30
63204;BME280;49297;43.210;27.914;2023-02-14T09:08:31;102356.69;;;5.99;55.42
63204;BME280;49297;43.210;27.914;2023-02-14T09:11:09;102371.50;;;6.01;54.23
63204;BME280;49297;43.210;27.914;2023-02-14T09:13:35;102359.72;;;6.10;54.31
63204;BME280;49297;43.210;27.914;2023-02-14T09:16:05;102352.28;;;6.20;53.41
63204;BME280;49297;43.210;27.914;2023-02-14T09:18:31;102349.38;;;6.26;53.21
63204;BME280;49297;43.210;27.914;2023-02-14T09:20:56;102341.00;;;6.37;53.43
63204;BME280;49297;43.210;27.914;2023-02-14T09:23:23;102347.63;;;6.45;52.26
63204;BME280;49297;43.210;27.914;2023-02-14T09:25:48;102340.34;;;6.51;51.45
63204;BME280;49297;43.210;27.914;2023-02-14T09:28:14;102343.53;;;6.57;51.33
63204;BME280;49297;43.210;27.914;2023-02-14T09:30:40;102341.41;;;6.65;50.82
63204;BME280;49297;43.210;27.914;2023-02-14T09:33:06;102339.41;;;6.71;50.04
63204;BME280;49297;43.210;27.914;2023-02-14T09:35:32;102325.88;;;6.78;49.12
63204;BME280;49297;43.210;27.914;2023-02-14T09:37:57;102335.88;;;6.89;49.52
63204;BME280;49297;43.210;27.914;2023-02-14T09:40:43;102333.56;;;7.00;49.17
63204;BME280;49297;43.210;27.914;2023-02-14T09:43:44;102330.19;;;7.16;47.04
63204;BME280;49297;43.210;27.914;2023-02-14T09:46:14;102335.25;;;7.20;46.69
63204;BME280;49297;43.210;27.914;2023-02-14T09:48:44;102329.72;;;7.25;46.79
63204;BME280;49297;43.210;27.914;2023-02-14T09:51:18;102324.31;;;7.28;47.41
63204;BME280;49297;43.210;27.914;2023-02-14T09:53:51;102325.88;;;7.32;46.84
63204;BME280;49297;43.210;27.914;2023-02-14T09:56:30;102324.88;;;7.35;47.70
63204;BME280;49297;43.210;27.914;2023-02-14T10:01:49;102325.03;;;7.49;47.03
63204;BME280;49297;43.210;27.914;2023-02-14T10:04:41;102319.34;;;7.57;46.83
63204;BME280;49297;43.210;27.914;2023-02-14T10:10:13;102315.03;;;7.56;46.22
63204;BME280;49297;43.210;27.914;2023-02-14T10:12:52;102321.06;;;7.58;46.72
63204;BME280;49297;43.210;27.914;2023-02-14T10:15:24;102306.94;;;7.59;46.42
63204;BME280;49297;43.210;27.914;2023-02-14T10:17:56;102304.91;;;7.64;45.97
63204;BME280;49297;43.210;27.914;2023-02-14T10:20:44;102298.03;;;7.61;45.89
63204;BME280;49297;43.210;27.914;2023-02-14T10:23:33;102290.56;;;7.70;46.16
63204;BME280;49297;43.210;27.914;2023-02-14T10:28:34;102293.81;;;7.75;45.26
63204;BME280;49297;43.210;27.914;2023-02-14T10:34:47;102285.25;;;7.87;45.81
63204;BME280;49297;43.210;27.914;2023-02-14T10:37:17;102283.06;;;7.95;45.37
63204;BME280;49297;43.210;27.914;2023-02-14T10:40:03;102280.25;;;7.98;43.83
63204;BME280;49297;43.210;27.914;2023-02-14T10:45:40;102269.03;;;8.11;43.78
63204;BME280;49297;43.210;27.914;2023-02-14T10:48:21;102270.41;;;8.18;43.48
63204;BME280;49297;43.210;27.914;2023-02-14T10:50:59;102259.75;;;8.19;44.13
63204;BME280;49297;43.210;27.914;2023-02-14T10:59:44;102268.19;;;8.26;44.46
63204;BME280;49297;43.210;27.914;2023-02-14T11:02:13;102263.44;;;8.33;44.40
63204;BME280;49297;43.210;27.914;2023-02-14T11:04:41;102269.41;;;8.36;44.41
63204;BME280;49297;43.210;27.914;2023-02-14T11:07:19;102263.09;;;8.39;44.20
63204;BME280;49297;43.210;27.914;2023-02-14T11:09:46;102246.19;;;8.43;43.60
63204;BME280;49297;43.210;27.914;2023-02-14T11:12:31;102255.09;;;8.56;43.70
63204;BME280;49297;43.210;27.914;2023-02-14T11:15:10;102239.78;;;8.63;42.83
63204;BME280;49297;43.210;27.914;2023-02-14T11:17:44;102237.06;;;8.65;42.76
63204;BME280;49297;43.210;27.914;2023-02-14T11:22:48;102234.63;;;8.76;41.97
63204;BME280;49297;43.210;27.914;2023-02-14T11:27:45;102229.34;;;8.76;43.00
63204;BME280;49297;43.210;27.914;2023-02-14T11:30:41;102233.97;;;8.72;42.14
63204;BME280;49297;43.210;27.914;2023-02-14T11:35:54;102230.47;;;8.72;42.46
63204;BME280;49297;43.210;27.914;2023-02-14T11:38:30;102230.47;;;8.72;42.52
63204;BME280;49297;43.210;27.914;2023-02-14T11:40:59;102224.53;;;8.68;42.98
63204;BME280;49297;43.210;27.914;2023-02-14T11:46:16;102211.78;;;8.75;42.74
63204;BME280;49297;43.210;27.914;2023-02-14T11:51:36;102222.84;;;8.82;42.81
63204;BME280;49297;43.210;27.914;2023-02-14T11:54:11;102214.69;;;8.86;42.48
63204;BME280;49297;43.210;27.914;2023-02-14T11:59:11;102210.59;;;9.11;41.84
63204;BME280;49297;43.210;27.914;2023-02-14T12:01:38;102215.09;;;9.23;41.63
63204;BME280;49297;43.210;27.914;2023-02-14T12:04:27;102207.00;;;9.26;40.85
63204;BME280;49297;43.210;27.914;2023-02-14T12:06:56;102206.91;;;9.28;41.10
63204;BME280;49297;43.210;27.914;2023-02-14T12:09:36;102203.44;;;9.42;41.31
63204;BME280;49297;43.210;27.914;2023-02-14T12:12:26;102192.38;;;9.64;40.94
63204;BME280;49297;43.210;27.914;2023-02-14T12:15:16;102189.44;;;9.83;40.59
63204;BME280;49297;43.210;27.914;2023-02-14T12:17:46;102190.91;;;10.01;40.47
63204;BME280;49297;43.210;27.914;2023-02-14T12:20:16;102191.59;;;10.18;40.80
63204;BME280;49297;43.210;27.914;2023-02-14T12:22:53;102203.09;;;10.45;39.99
63204;BME280;49297;43.210;27.914;2023-02-14T12:25:24;102193.00;;;10.65;39.55
63204;BME280;49297;43.210;27.914;2023-02-14T12:27:59;102189.25;;;10.55;39.33
63204;BME280;49297;43.210;27.914;2023-02-14T12:30:32;102187.25;;;10.58;38.40
63204;BME280;49297;43.210;27.914;2023-02-14T12:32:58;102192.34;;;10.61;38.25
63204;BME280;49297;43.210;27.914;2023-02-14T12:38:12;102186.06;;;10.90;38.95
63204;BME280;49297;43.210;27.914;2023-02-14T12:40:46;102173.69;;;11.16;38.08
63204;BME280;49297;43.210;27.914;2023-02-14T12:43:41;102171.53;;;11.21;38.42
63204;BME280;49297;43.210;27.914;2023-02-14T12:48:40;102159.84;;;10.98;38.71
63204;BME280;49297;43.210;27.914;2023-02-14T12:51:25;102168.09;;;10.67;39.47
63204;BME280;49297;43.210;27.914;2023-02-14T12:57:23;102165.50;;;10.26;40.01
63204;BME280;49297;43.210;27.914;2023-02-14T13:00:18;102167.00;;;10.03;40.47
63204;BME280;49297;43.210;27.914;2023-02-14T13:11:33;102172.44;;;9.72;41.48
63204;BME280;49297;43.210;27.914;2023-02-14T13:17:16;102168.03;;;9.30;41.78
63204;BME280;49297;43.210;27.914;2023-02-14T13:22:21;102173.38;;;9.00;42.94
63204;BME280;49297;43.210;27.914;2023-02-14T13:24:51;102170.78;;;8.84;43.06
63204;BME280;49297;43.210;27.914;2023-02-14T13:27:22;102170.41;;;8.75;43.17
63204;BME280;49297;43.210;27.914;2023-02-14T13:30:02;102171.88;;;8.65;43.60
63204;BME280;49297;43.210;27.914;2023-02-14T13:32:39;102175.91;;;8.56;43.54
63204;BME280;49297;43.210;27.914;2023-02-14T13:35:06;102169.69;;;8.57;43.77
63204;BME280;49297;43.210;27.914;2023-02-14T13:37:33;102174.31;;;8.54;44.03
63204;BME280;49297;43.210;27.914;2023-02-14T13:40:08;102167.16;;;8.56;43.98
63204;BME280;49297;43.210;27.914;2023-02-14T13:50:32;102161.16;;;8.68;44.03
63204;BME280;49297;43.210;27.914;2023-02-14T13:53:01;102161.06;;;8.70;43.71
63204;BME280;49297;43.210;27.914;2023-02-14T13:55:34;102157.38;;;8.72;42.94
63204;BME280;49297;43.210;27.914;2023-02-14T13:58:04;102154.81;;;8.71;43.61
63204;BME280;49297;43.210;27.914;2023-02-14T14:00:42;102162.66;;;8.72;42.96
63204;BME280;49297;43.210;27.914;2023-02-14T14:03:14;102153.03;;;8.71;43.64
63204;BME280;49297;43.210;27.914;2023-02-14T14:06:09;102157.84;;;8.65;43.36
63204;BME280;49297;43.210;27.914;2023-02-14T14:08:43;102148.66;;;8.56;43.35
63204;BME280;49297;43.210;27.914;2023-02-14T14:13:57;102147.66;;;8.43;43.85
63204;BME280;49297;43.210;27.914;2023-02-14T14:24:23;102152.19;;;8.25;43.76
63204;BME280;49297;43.210;27.914;2023-02-14T14:27:03;102146.13;;;8.23;44.19
63204;BME280;49297;43.210;27.914;2023-02-14T14:31:56;102146.81;;;8.26;43.74
63204;BME280;49297;43.210;27.914;2023-02-14T14:34:25;102137.19;;;8.25;43.60
63204;BME280;49297;43.210;27.914;2023-02-14T14:37:14;102138.47;;;8.18;43.63
63204;BME280;49297;43.210;27.914;2023-02-14T14:39:40;102126.56;;;8.11;43.99
63204;BME280;49297;43.210;27.914;2023-02-14T14:42:13;102133.34;;;8.00;44.71
63204;BME280;49297;43.210;27.914;2023-02-14T14:44:58;102148.28;;;8.00;44.36
63204;BME280;49297;43.210;27.914;2023-02-14T14:47:30;102139.59;;;7.98;44.97
63204;BME280;49297;43.210;27.914;2023-02-14T14:50:05;102135.53;;;7.92;45.70
63204;BME280;49297;43.210;27.914;2023-02-14T14:52:35;102127.09;;;7.86;45.27
63204;BME280;49297;43.210;27.914;2023-02-14T14:55:04;102128.97;;;7.84;44.97
63204;BME280;49297;43.210;27.914;2023-02-14T14:57:38;102138.00;;;7.79;45.53
63204;BME280;49297;43.210;27.914;2023-02-14T15:00:29;102129.41;;;7.76;46.19
63204;BME280;49297;43.210;27.914;2023-02-14T15:03:06;102123.53;;;7.71;46.16
63204;BME280;49297;43.210;27.914;2023-02-14T15:05:35;102125.41;;;7.69;46.27
63204;BME280;49297;43.210;27.914;2023-02-14T15:11:08;102133.03;;;7.57;46.45